Time;durP1;ratioP1;P1;durP2;ratioP2;P2;SDS_P1;SDS_P2;PMS_P1;PMS_P2;Temp;Humidity;BMP_temperature;BMP_pressure;BME280_temperature;BME280_humidity;BME280_pressure;Samples;Min_cycle;Max_cycle;Signal;HPM_P1;HPM_P2
2022/05/22 00:01:27;;;;;;;11.18;3.95;;;;;;;-147.05;0.00;58404.97;5061989;28;20155;-70
2022/05/22 00:03:54;;;;;;;9.90;4.10;;;;;;;-147.05;0.00;58404.97;5060618;28;20037;-71
2022/05/22 00:06:21;;;;;;;6.32;3.35;;;;;;;-147.05;0.00;58404.97;5057153;28;22325;-71
2022/05/22 00:08:49;;;;;;;10.38;3.70;;;;;;;-147.05;0.00;58404.97;5065033;28;20062;-69
2022/05/22 00:11:16;;;;;;;8.73;3.53;;;;;;;11.02;0.00;58404.97;5071590;28;20037;-70
2022/05/22 00:13:43;;;;;;;8.98;3.42;;;;;;;-147.05;0.00;58404.97;5058182;28;20037;-68
2022/05/22 00:18:56;;;;;;;8.75;3.42;;;;;;;-147.05;0.00;58404.97;5056731;28;20474;-69
2022/05/22 00:21:23;;;;;;;10.70;3.33;;;;;;;-147.05;0.00;58404.97;5055784;28;20108;-68
2022/05/22 00:23:50;;;;;;;9.35;3.65;;;;;;;-147.05;0.00;58404.97;5068739;28;20037;-68
2022/05/22 00:26:18;;;;;;;12.52;4.20;;;;;;;-147.05;0.00;58404.97;5050991;28;20528;-69
2022/05/22 00:28:46;;;;;;;9.25;3.85;;;;;;;-147.05;0.00;58404.97;5053680;28;20045;-69
2022/05/22 00:31:14;;;;;;;13.30;3.88;;;;;;;-147.05;0.00;58404.97;5058441;28;20033;-68
2022/05/22 00:33:42;;;;;;;11.23;4.30;;;;;;;-147.05;0.00;58404.97;5055370;28;20044;-69
2022/05/22 00:36:10;;;;;;;11.07;4.43;;;;;;;11.53;0.00;58404.97;5060591;28;20048;-70
2022/05/22 00:38:37;;;;;;;10.20;4.50;;;;;;;11.53;0.00;58404.97;5064690;28;20053;-69
2022/05/22 00:41:08;;;;;;;9.25;4.05;;;;;;;-147.05;0.00;58404.97;5056729;28;20041;-70
2022/05/22 00:43:45;;;;;;;9.43;4.25;;;;;;;191.58;0.00;58404.97;5060594;28;20037;-69
2022/05/22 00:46:16;;;;;;;10.13;4.25;;;;;;;-147.05;0.00;58404.97;5071279;28;20116;-70
2022/05/22 00:48:47;;;;;;;8.57;3.78;;;;;;;-147.05;0.00;58404.97;5072341;28;20097;-71
2022/05/22 00:51:46;;;;;;;9.35;4.22;;;;;;;-147.05;0.00;58404.97;5077915;28;20041;-71
2022/05/22 00:54:24;;;;;;;8.20;4.07;;;;;;;10.14;0.00;58404.97;5079320;28;20049;-71
2022/05/22 00:57:04;;;;;;;9.57;3.97;;;;;;;-147.05;0.00;58404.97;5071656;28;20542;-71
2022/05/22 01:13:35;;;;;;;7.57;3.92;;;;;;;-147.05;0.00;58404.97;5055636;28;20041;-70
2022/05/22 01:16:05;;;;;;;10.52;4.68;;;;;;;10.21;0.00;58404.97;5054794;28;20049;-71
2022/05/22 01:18:50;;;;;;;9.43;4.40;;;;;;;-147.05;0.00;58404.97;5049961;28;20144;-71
2022/05/22 01:21:24;;;;;;;11.68;4.85;;;;;;;-147.05;0.00;58404.97;5051595;28;20042;-70
2022/05/22 01:23:52;;;;;;;;;;;;;;;-147.05;0.00;58404.97;5064775;28;20041;-71
2022/05/22 01:26:26;;;;;;;8.70;5.25;;;;;;;10.21;0.00;58404.97;5064947;28;19979;-70
2022/05/22 01:29:18;;;;;;;11.18;5.88;;;;;;;-147.05;0.00;58404.97;5064695;28;20452;-70
2022/05/22 01:31:51;;;;;;;8.98;5.32;;;;;;;11.53;0.00;58404.97;5064188;28;20738;-69
2022/05/22 01:34:19;;;;;;;11.75;5.47;;;;;;;10.21;0.00;58404.97;5063525;28;20128;-71
2022/05/22 01:36:47;;;;;;;8.73;5.75;;;;;;;11.53;0.00;58404.97;5052643;28;20091;-72
2022/05/22 01:39:14;;;;;;;10.50;6.07;;;;;;;191.58;0.00;58404.97;5050571;28;20065;-70
2022/05/22 01:42:37;;;;;;;13.30;6.72;;;;;;;10.21;0.00;58404.97;5068374;28;20037;-71
2022/05/22 01:45:07;;;;;;;10.95;5.88;;;;;;;10.21;0.00;58404.97;5053048;28;20041;-68
2022/05/22 01:47:38;;;;;;;13.65;5.60;;;;;;;-147.05;0.00;58404.97;5051897;28;20042;-70
2022/05/22 01:50:35;;;;;;;11.82;5.18;;;;;;;10.21;0.00;58404.97;5049768;28;20050;-70
2022/05/22 01:53:02;;;;;;;9.68;5.75;;;;;;;10.21;0.00;58404.97;5059914;28;20061;-69
2022/05/22 01:55:30;;;;;;;12.13;5.35;;;;;;;10.21;0.00;58404.97;5053420;28;20045;-68
2022/05/22 01:57:59;;;;;;;10.43;5.30;;;;;;;-147.05;0.00;58404.97;5068831;28;20493;-70
2022/05/22 02:00:27;;;;;;;9.70;5.43;;;;;;;-147.05;0.00;58404.97;5053798;28;20049;-70
2022/05/22 02:02:57;;;;;;;13.40;5.82;;;;;;;-147.05;0.00;58404.97;5064975;28;20041;-70
2022/05/22 02:05:32;;;;;;;11.73;5.68;;;;;;;-147.05;0.00;58404.97;5051207;28;20049;-70
2022/05/22 02:08:22;;;;;;;11.60;5.47;;;;;;;-147.05;0.00;58404.97;5063112;28;20128;-70
2022/05/22 02:11:02;;;;;;;10.90;5.38;;;;;;;-147.05;0.00;58404.97;5058785;28;20048;-71
2022/05/22 02:13:39;;;;;;;8.95;5.05;;;;;;;-147.05;0.00;58404.97;5066469;28;20170;-70
2022/05/22 02:16:08;;;;;;;13.07;6.28;;;;;;;9.36;0.00;58404.97;5055231;28;20745;-70
2022/05/22 02:22:57;;;;;;;9.70;5.45;;;;;;;-147.05;0.00;58404.97;5057012;28;20562;-71
2022/05/22 02:25:53;;;;;;;11.77;5.70;;;;;;;-147.05;0.00;58404.97;5069689;28;20041;-70
2022/05/22 02:28:23;;;;;;;13.68;5.80;;;;;;;9.20;0.00;58404.97;5058711;28;20112;-70
2022/05/22 02:31:01;;;;;;;11.00;5.93;;;;;;;-147.05;0.00;58404.97;5072373;28;20388;-71
2022/05/22 02:33:31;;;;;;;9.77;5.80;;;;;;;-147.05;0.00;58404.97;5059405;28;20038;-70
2022/05/22 02:36:06;;;;;;;11.15;5.47;;;;;;;-147.05;0.00;58404.97;5058147;28;20045;-71
2022/05/22 02:38:36;;;;;;;17.23;6.05;;;;;;;-147.05;0.00;58404.97;5063584;28;20107;-70
2022/05/22 02:41:12;;;;;;;9.75;5.55;;;;;;;-147.05;0.00;58404.97;5068244;28;20846;-69
2022/05/22 02:43:42;;;;;;;12.18;6.22;;;;;;;-147.05;0.00;58404.97;5056316;28;20045;-69
2022/05/22 02:46:17;;;;;;;12.15;6.20;;;;;;;-147.05;0.00;58404.97;5054305;28;20711;-69
2022/05/22 02:48:48;;;;;;;11.77;6.40;;;;;;;-147.05;0.00;58404.97;5057218;28;20056;-69
2022/05/22 02:51:20;;;;;;;11.43;5.97;;;;;;;-147.05;0.00;58404.97;5057898;28;20101;-70
2022/05/22 02:53:47;;;;;;;12.75;5.97;;;;;;;-147.05;0.00;58404.97;5055334;28;20085;-68
2022/05/22 02:56:25;;;;;;;11.35;5.70;;;;;;;-147.05;0.00;58404.97;5066892;28;20399;-68
2022/05/22 02:59:10;;;;;;;11.73;5.47;;;;;;;-147.05;0.00;58404.97;5065687;28;20055;-69
2022/05/22 03:01:45;;;;;;;8.50;5.30;;;;;;;-147.05;0.00;58404.97;5052294;28;20052;-68
2022/05/22 03:04:13;;;;;;;8.80;5.07;;;;;;;-147.05;0.00;58404.97;5068759;28;20065;-68
2022/05/22 03:06:40;;;;;;;11.68;5.85;;;;;;;11.53;0.00;58404.97;5081128;28;20048;-68
2022/05/22 03:09:16;;;;;;;11.80;6.07;;;;;;;-147.05;0.00;58404.97;5065223;28;20128;-71
2022/05/22 03:11:47;;;;;;;12.98;6.03;;;;;;;10.21;0.00;58404.97;5065967;28;20116;-70
2022/05/22 03:14:16;;;;;;;13.23;6.38;;;;;;;-147.05;0.00;58404.97;5071530;28;20041;-72
2022/05/22 03:16:44;;;;;;;9.73;6.25;;;;;;;-147.05;0.00;58404.97;5070865;28;20104;-72
2022/05/22 03:19:14;;;;;;;15.40;6.85;;;;;;;9.17;0.00;58404.97;5070855;28;20041;-69
2022/05/22 03:21:42;;;;;;;11.65;6.28;;;;;;;10.21;0.00;58404.97;5070758;28;20045;-69
2022/05/22 03:24:11;;;;;;;17.13;7.15;;;;;;;11.53;0.00;58404.97;5066716;28;20128;-70
2022/05/22 03:26:47;;;;;;;10.52;6.53;;;;;;;-147.05;0.00;58404.97;5057103;28;20073;-70
2022/05/22 03:29:15;;;;;;;11.65;6.18;;;;;;;11.53;0.00;58404.97;5066709;28;20152;-69
2022/05/22 03:31:42;;;;;;;11.20;6.55;;;;;;;11.53;0.00;58404.97;5055042;28;20054;-70
2022/05/22 03:34:09;;;;;;;10.82;6.07;;;;;;;9.01;0.00;58404.97;5060465;28;20049;-70
2022/05/22 03:36:42;;;;;;;15.32;6.40;;;;;;;9.01;0.00;58404.97;5068011;28;20077;-69
2022/05/22 03:39:10;;;;;;;11.88;6.35;;;;;;;-147.05;0.00;58404.97;5053296;28;20522;-70
2022/05/22 03:41:38;;;;;;;9.68;6.22;;;;;;;11.53;0.00;58404.97;5064404;28;20537;-69
2022/05/22 03:44:06;;;;;;;17.27;7.57;;;;;;;10.21;0.00;58404.97;5068569;28;20044;-70
2022/05/22 03:46:41;;;;;;;13.40;7.15;;;;;;;-147.05;0.00;58404.97;5065636;28;20045;-70
2022/05/22 03:49:09;;;;;;;10.98;6.40;;;;;;;-147.05;0.00;58404.97;5072442;28;20630;-70
2022/05/22 03:51:40;;;;;;;15.43;6.65;;;;;;;-147.05;0.00;58404.97;5057749;28;20116;-70
2022/05/22 03:54:13;;;;;;;13.10;6.68;;;;;;;-147.05;0.00;58404.97;5075676;28;20112;-70
2022/05/22 03:56:43;;;;;;;10.38;6.35;;;;;;;-147.05;0.00;58404.97;5060483;28;20045;-71
2022/05/22 03:59:25;;;;;;;10.38;6.40;;;;;;;-147.05;0.00;58404.97;5065797;28;20052;-69
2022/05/22 04:01:54;;;;;;;11.73;5.97;;;;;;;-147.05;0.00;58404.97;5066872;28;20051;-70
2022/05/22 04:04:21;;;;;;;10.50;6.22;;;;;;;-147.05;0.00;58404.97;5066966;28;20084;-70
2022/05/22 04:06:49;;;;;;;13.38;6.30;;;;;;;-147.05;0.00;58404.97;5059569;28;20044;-70
2022/05/22 04:09:28;;;;;;;11.07;6.80;;;;;;;-147.05;0.00;58404.97;5064537;28;20045;-69
2022/05/22 04:12:09;;;;;;;14.43;7.97;;;;;;;-147.05;0.00;58404.97;5062119;28;20038;-70
2022/05/22 04:14:58;;;;;;;13.25;8.18;;;;;;;-147.05;0.00;58404.97;5055274;28;20076;-70
2022/05/22 04:17:46;;;;;;;18.58;9.23;;;;;;;-147.05;0.00;58404.97;5065132;28;20049;-69
2022/05/22 04:20:38;;;;;;;15.77;8.13;;;;;;;-147.05;0.00;58404.97;5052584;28;20045;-70
2022/05/22 04:26:18;;;;;;;15.15;9.68;;;;;;;10.21;0.00;58404.97;5067554;28;20063;-71
2022/05/22 04:28:45;;;;;;;17.48;9.10;;;;;;;10.21;0.00;58404.97;5059932;28;20049;-70
2022/05/22 04:31:21;;;;;;;16.88;9.18;;;;;;;10.21;0.00;58404.97;5055937;28;20051;-71
2022/05/22 04:34:06;;;;;;;15.70;9.60;;;;;;;-147.05;0.00;58404.97;5059380;28;20418;-70
2022/05/22 04:36:34;;;;;;;16.63;9.23;;;;;;;-147.05;0.00;58404.97;5066065;28;20045;-69
2022/05/22 04:39:02;;;;;;;15.45;9.02;;;;;;;10.30;0.00;58404.97;5070031;28;20053;-71
2022/05/22 04:41:29;;;;;;;18.08;8.80;;;;;;;10.46;0.00;58404.97;5068102;28;20033;-69
2022/05/22 04:43:56;;;;;;;15.05;7.78;;;;;;;-147.05;0.00;58404.97;5064335;28;20463;-70
2022/05/22 04:46:24;;;;;;;17.50;9.23;;;;;;;-147.05;0.00;58404.97;5066525;28;21007;-71
2022/05/22 04:48:52;;;;;;;13.02;7.90;;;;;;;11.29;0.00;58404.97;5057045;28;20529;-70
2022/05/22 04:51:20;;;;;;;11.07;7.65;;;;;;;11.50;0.00;58404.97;5058294;28;20045;-70
2022/05/22 04:53:59;;;;;;;11.73;7.53;;;;;;;11.52;0.00;58404.97;5059237;28;20064;-69
2022/05/22 04:56:39;;;;;;;13.65;7.03;;;;;;;11.65;nan;100614.13;5065491;28;20483;-70
2022/05/22 04:59:14;;;;;;;11.15;6.72;;;;;;;11.74;nan;100611.38;5061047;28;20538;-71
2022/05/22 05:01:42;;;;;;;11.30;6.53;;;;;;;11.75;nan;100605.31;5073435;28;20048;-70
2022/05/22 05:04:16;;;;;;;11.70;6.43;;;;;;;11.84;nan;100606.00;5055351;28;20037;-70
2022/05/22 05:07:06;;;;;;;13.13;6.40;;;;;;;12.11;nan;100596.81;5046340;28;20036;-71
2022/05/22 05:09:51;;;;;;;12.65;6.22;;;;;;;12.34;nan;100598.03;5059058;28;20041;-71
2022/05/22 05:12:42;;;;;;;11.77;6.03;;;;;;;12.52;nan;100591.59;5058608;28;20061;-70
2022/05/22 05:15:21;;;;;;;12.30;6.28;;;;;;;12.65;nan;100585.22;5064680;28;20046;-70
2022/05/22 05:17:56;;;;;;;11.23;5.80;;;;;;;13.02;nan;100589.44;5055241;28;20041;-71
2022/05/22 05:20:25;;;;;;;8.73;5.40;;;;;;;13.84;0.00;58404.97;5070644;28;20049;-71
2022/05/22 05:23:04;;;;;;;13.43;5.57;;;;;;;14.50;nan;100578.22;5051289;28;20547;-71
2022/05/22 05:25:41;;;;;;;11.48;5.10;;;;;;;15.34;nan;100584.03;5055677;28;20053;-69
2022/05/22 05:28:10;;;;;;;10.93;4.50;;;;;;;15.83;nan;100578.75;5066977;28;20045;-71
2022/05/22 05:30:37;;;;;;;7.47;3.92;;;;;;;-147.05;0.00;58404.97;5066445;28;20049;-68
2022/05/22 05:33:05;;;;;;;9.98;4.13;;;;;;;16.28;0.00;58404.97;5068091;28;20124;-69
2022/05/22 05:36:11;;;;;;;9.10;4.22;;;;;;;-147.05;0.00;58404.97;5056540;28;20049;-69
2022/05/22 05:39:10;;;;;;;9.93;3.75;;;;;;;17.02;nan;100580.09;5053477;28;20041;-69
2022/05/22 05:41:45;;;;;;;8.77;3.78;;;;;;;17.36;nan;100589.88;5056641;28;20582;-66
2022/05/22 05:44:16;;;;;;;9.30;3.65;;;;;;;17.81;nan;100595.66;5059182;28;20502;-65
2022/05/22 05:46:53;;;;;;;9.50;3.55;;;;;;;18.05;nan;100582.44;5051183;28;20038;-67
2022/05/22 05:49:23;;;;;;;6.82;3.42;;;;;;;18.28;nan;100583.09;5054166;28;20131;-66
2022/05/22 05:52:09;;;;;;;9.75;3.55;;;;;;;18.44;nan;100578.00;5049673;28;20085;-67
2022/05/22 05:54:58;;;;;;;8.20;3.28;;;;;;;18.57;nan;100584.25;5053668;28;20574;-67
2022/05/22 05:57:46;;;;;;;7.05;2.92;;;;;;;19.16;nan;100580.50;5061869;28;20034;-68
2022/05/22 06:00:19;;;;;;;5.95;3.03;;;;;;;19.65;nan;100593.53;5059223;28;20054;-68
2022/05/22 06:02:52;;;;;;;8.80;3.15;;;;;;;20.14;nan;100586.59;5058289;28;20033;-68
2022/05/22 06:05:21;;;;;;;9.48;3.53;;;;;;;20.25;nan;100583.34;5058879;28;20044;-68
2022/05/22 06:07:51;;;;;;;8.27;3.00;;;;;;;19.82;nan;100576.94;5058787;28;20037;-68
2022/05/22 06:10:22;;;;;;;5.47;2.65;;;;;;;18.85;nan;100579.44;5055325;28;20052;-68
2022/05/22 06:13:08;;;;;;;8.70;3.20;;;;;;;17.96;nan;100586.31;5059895;28;20041;-70
2022/05/22 06:15:35;;;;;;;8.70;3.30;;;;;;;17.49;nan;100584.13;5061009;28;20987;-70
2022/05/22 06:18:02;;;;;;;10.43;3.22;;;;;;;17.16;nan;100580.38;5066699;28;20046;-70
2022/05/22 06:20:30;;;;;;;9.75;3.17;;;;;;;16.99;nan;100585.47;5051500;28;20045;-70
2022/05/22 06:23:08;;;;;;;7.45;2.85;;;;;;;16.77;nan;100579.38;5067297;28;20048;-69
2022/05/22 06:25:53;;;;;;;8.63;3.10;;;;;;;16.59;nan;100586.19;5048663;28;20046;-70
2022/05/22 06:28:41;;;;;;;8.18;2.80;;;;;;;16.52;nan;100584.75;5060826;28;20120;-69
2022/05/22 06:31:25;;;;;;;5.80;2.92;;;;;;;16.48;nan;100590.13;5048321;28;20042;-71
2022/05/22 06:34:11;;;;;;;11.32;3.67;;;;;;;16.45;nan;100584.16;5051659;28;20102;-70
2022/05/22 06:37:15;;;;;;;11.95;3.60;;;;;;;16.43;nan;100598.13;5048761;28;20053;-70
2022/05/22 06:39:55;;;;;;;11.23;5.32;;;;;;;16.49;nan;100597.88;5058647;28;20152;-70
2022/05/22 06:42:44;;;;;;;12.35;5.90;;;;;;;16.48;nan;100598.81;5060729;28;20033;-71
2022/05/22 06:45:44;;;;;;;13.80;5.75;;;;;;;16.50;nan;100594.34;5063557;28;20045;-69
2022/05/22 06:48:30;;;;;;;10.93;5.13;;;;;;;16.46;nan;100595.41;5060138;28;20892;-71
2022/05/22 06:51:10;;;;;;;11.70;4.55;;;;;;;16.57;nan;100585.41;5054722;28;20041;-70
2022/05/22 06:53:58;;;;;;;13.65;4.38;;;;;;;16.76;nan;100600.25;5062305;28;20052;-70
2022/05/22 06:56:28;;;;;;;9.63;4.30;;;;;;;16.94;nan;100597.81;5066620;28;20121;-72
2022/05/22 06:58:55;;;;;;;10.85;4.28;;;;;;;17.15;nan;100596.03;5066272;28;20045;-72
2022/05/22 07:01:26;;;;;;;8.70;3.67;;;;;;;17.43;nan;100590.44;5067939;28;20503;-71
2022/05/22 07:04:23;;;;;;;8.52;3.80;;;;;;;17.71;nan;100597.00;5065826;28;20049;-71
2022/05/22 07:06:56;;;;;;;11.10;4.05;;;;;;;17.88;nan;100598.00;5067912;28;20095;-71
2022/05/22 07:09:56;;;;;;;9.55;4.10;;;;;;;17.94;nan;100590.75;5048328;28;20163;-72
2022/05/22 07:12:42;;;;;;;8.73;3.83;;;;;;;17.91;nan;100596.09;5069470;28;20045;-73
2022/05/22 07:15:27;;;;;;;11.43;4.05;;;;;;;17.98;nan;100587.09;5064646;28;20049;-72
2022/05/22 07:18:16;;;;;;;10.75;3.70;;;;;;;18.20;nan;100583.47;5056726;28;20037;-72
2022/05/22 07:21:05;;;;;;;10.57;4.70;;;;;;;18.36;nan;100593.16;5063148;28;20044;-72
2022/05/22 07:23:53;;;;;;;10.90;4.25;;;;;;;18.55;nan;100582.66;5057275;28;20041;-72
2022/05/22 07:26:39;;;;;;;9.10;4.22;;;;;;;18.54;nan;100580.97;5053601;28;20056;-72
2022/05/22 07:29:28;;;;;;;9.38;4.70;;;;;;;18.37;nan;100582.66;5080670;28;20056;-72
2022/05/22 07:32:15;;;;;;;8.98;3.80;;;;;;;18.38;nan;100580.88;5058233;28;20601;-73
2022/05/22 07:35:04;;;;;;;12.05;4.70;;;;;;;18.49;nan;100581.19;5072545;28;20064;-72
2022/05/22 07:38:04;;;;;;;12.63;4.32;;;;;;;18.67;nan;100592.50;5057494;28;20132;-71
2022/05/22 07:40:52;;;;;;;8.13;3.90;;;;;;;18.75;nan;100586.91;5054985;28;20501;-72
2022/05/22 07:43:48;;;;;;;15.23;4.35;;;;;;;18.89;nan;100584.41;5055625;28;20049;-72
2022/05/22 07:46:23;;;;;;;9.77;3.70;;;;;;;19.02;nan;100587.28;5073169;28;20044;-72
2022/05/22 07:48:56;;;;;;;9.50;4.07;;;;;;;19.16;nan;100581.34;5092862;28;20052;-72
2022/05/22 07:51:41;;;;;;;10.98;3.47;;;;;;;18.93;nan;100591.22;5081983;28;20042;-72
2022/05/22 07:54:37;;;;;;;10.02;3.42;;;;;;;18.91;nan;100573.91;5070442;28;20052;-72
2022/05/22 07:57:24;;;;;;;8.38;3.50;;;;;;;18.84;nan;100577.75;5059690;28;20045;-72
2022/05/22 08:00:18;;;;;;;10.65;3.47;;;;;;;19.05;nan;100578.44;5053382;28;20689;-72
2022/05/22 08:02:49;;;;;;;8.30;3.67;;;;;;;19.19;nan;100572.50;5055907;28;20065;-72
2022/05/22 08:05:20;;;;;;;6.78;3.00;;;;;;;19.31;nan;100578.84;5071934;28;20052;-73
2022/05/22 08:07:54;;;;;;;7.85;3.28;;;;;;;19.49;nan;100577.84;5068223;28;20111;-72
2022/05/22 08:10:36;;;;;;;9.73;3.22;;;;;;;19.36;nan;100571.63;5060152;28;20053;-72
2022/05/22 08:13:11;;;;;;;9.73;3.33;;;;;;;19.31;nan;100569.25;5058547;28;20041;-71
2022/05/22 08:15:41;;;;;;;10.07;3.40;;;;;;;19.32;nan;100557.91;5059686;28;20123;-71
2022/05/22 08:18:24;;;;;;;10.52;3.53;;;;;;;19.05;nan;100550.56;5068148;28;20041;-72
2022/05/22 08:20:52;;;;;;;12.77;3.38;;;;;;;18.98;nan;100556.19;5073248;28;20493;-72
2022/05/22 08:23:23;;;;;;;9.38;3.70;;;;;;;19.00;nan;100557.81;5040764;28;20049;-72
2022/05/22 08:25:53;;;;;;;8.55;3.20;;;;;;;19.19;nan;100546.41;5064170;28;20495;-72
2022/05/22 08:28:22;;;;;;;9.35;3.28;;;;;;;19.16;nan;100551.78;5068846;28;20092;-72
2022/05/22 08:30:49;;;;;;;10.18;2.85;;;;;;;19.29;nan;100549.34;5071909;28;20037;-71
2022/05/22 08:33:16;;;;;;;7.82;2.70;;;;;;;19.45;nan;100545.00;5060706;28;20044;-72
2022/05/22 08:35:45;;;;;;;7.28;2.63;;;;;;;19.62;nan;100540.63;5061560;28;20044;-71
2022/05/22 08:38:12;;;;;;;7.78;2.70;;;;;;;19.74;nan;100531.28;5059049;28;20055;-71
2022/05/22 08:40:48;;;;;;;13.93;3.28;;;;;;;19.84;nan;100529.84;5067108;28;20144;-72
2022/05/22 08:43:33;;;;;;;8.13;2.90;;;;;;;19.92;nan;100526.81;5070300;28;20479;-71
2022/05/22 08:46:22;;;;;;;7.82;2.70;;;;;;;19.96;nan;100518.72;5066094;28;20853;-72
2022/05/22 08:48:57;;;;;;;7.20;2.90;;;;;;;20.01;nan;100518.47;5052226;28;20037;-72
2022/05/22 08:51:43;;;;;;;8.77;2.70;;;;;;;20.05;nan;100509.53;5056476;28;20571;-72
2022/05/22 08:54:40;;;;;;;8.70;2.60;;;;;;;20.08;nan;100501.53;5053043;28;20060;-71
2022/05/22 09:00:53;;;;;;;6.88;2.28;;;;;;;20.20;nan;100504.31;5053085;28;20053;-71
2022/05/22 09:03:54;;;;;;;;;;;;;;;20.24;nan;100498.88;5053075;28;20129;-72
2022/05/22 09:06:33;;;;;;;7.00;2.90;;;;;;;20.30;nan;100489.78;5066570;28;20012;-72
2022/05/22 09:09:01;;;;;;;9.30;3.05;;;;;;;20.38;nan;100486.72;5056547;28;20045;-70
2022/05/22 09:12:10;;;;;;;10.00;2.20;;;;;;;20.44;nan;100489.00;5068847;28;20051;-71
2022/05/22 09:14:47;;;;;;;9.35;2.95;;;;;;;20.63;nan;100475.66;5065852;28;20128;-72
2022/05/22 09:17:28;;;;;;;7.38;2.40;;;;;;;20.87;nan;100475.97;5052176;28;20041;-71
2022/05/22 09:20:13;;;;;;;9.75;2.85;;;;;;;20.97;nan;100471.03;5051885;28;20046;-72
2022/05/22 09:23:10;;;;;;;7.22;3.03;;;;;;;20.90;nan;100459.25;5055706;28;20546;-71
2022/05/22 09:25:55;;;;;;;11.10;2.83;;;;;;;20.94;nan;100456.34;5068522;28;20116;-72
2022/05/22 09:28:34;;;;;;;8.35;2.72;;;;;;;21.04;nan;100454.00;5064539;28;20045;-72
2022/05/22 09:31:25;;;;;;;7.90;2.80;;;;;;;21.24;nan;100449.28;5055120;28;20041;-71
2022/05/22 09:34:07;;;;;;;7.32;3.10;;;;;;;21.40;nan;100449.16;5070548;28;20041;-73
2022/05/22 09:36:54;;;;;;;6.53;2.45;;;;;;;21.62;nan;100456.50;5054002;28;20038;-71
2022/05/22 09:40:01;;;;;;;11.70;3.10;;;;;;;21.93;nan;100451.88;5060145;28;20045;-72
2022/05/22 09:42:59;;;;;;;8.60;3.45;;;;;;;22.26;nan;100452.38;5065679;28;20126;-72
2022/05/22 09:45:38;;;;;;;9.98;3.95;;;;;;;22.40;nan;100443.56;5061465;28;20037;-72
2022/05/22 09:48:31;;;;;;;7.70;2.90;;;;;;;22.43;nan;100446.03;5067373;28;20091;-72
2022/05/22 09:51:35;;;;;;;7.25;3.10;;;;;;;22.13;nan;100460.22;5053565;28;20037;-72
2022/05/22 09:54:34;;;;;;;9.02;3.42;;;;;;;21.94;nan;100452.72;5057874;28;20431;-71
2022/05/22 09:57:47;;;;;;;8.32;4.22;;;;;;;21.97;nan;100448.13;5057905;28;20029;-72
2022/05/22 10:00:20;;;;;;;10.25;3.25;;;;;;;21.93;nan;100451.88;5057948;28;20144;-72
2022/05/22 10:02:59;;;;;;;9.70;3.70;;;;;;;21.90;nan;100438.13;5065501;28;20100;-71
2022/05/22 10:05:38;;;;;;;8.65;3.40;;;;;;;22.14;nan;100449.63;5055699;28;20045;-71
2022/05/22 10:08:33;;;;;;;6.60;3.50;;;;;;;22.44;nan;100443.28;5054319;28;20037;-71
2022/05/22 10:11:21;;;;;;;9.40;3.60;;;;;;;22.72;nan;100445.81;5069449;28;20091;-71
2022/05/22 10:14:42;;;;;;;9.68;3.92;;;;;;;23.24;nan;100438.69;5059352;28;20042;-73
2022/05/22 10:17:29;;;;;;;9.57;3.63;;;;;;;23.81;nan;100429.28;5019810;28;20157;-72
2022/05/22 10:20:45;;;;;;;6.80;3.45;;;;;;;24.06;nan;100434.53;5055370;28;20575;-71
2022/05/22 10:23:53;;;;;;;7.82;3.47;;;;;;;24.27;nan;100426.78;5033453;28;20050;-71
2022/05/22 10:26:47;;;;;;;10.63;3.65;;;;;;;24.41;nan;100429.22;5058743;28;20926;-71
2022/05/22 10:29:26;;;;;;;8.00;3.58;;;;;;;24.54;nan;100426.47;5051173;28;20518;-72
2022/05/22 10:32:07;;;;;;;10.10;3.53;;;;;;;24.71;nan;100419.09;5061495;28;20089;-72
2022/05/22 10:34:46;;;;;;;6.90;2.85;;;;;;;24.98;nan;100428.41;5061611;28;20041;-72
2022/05/22 10:37:51;;;;;;;6.43;3.00;;;;;;;25.35;nan;100425.44;5064916;28;20803;-71
2022/05/22 10:40:23;;;;;;;6.55;3.22;;;;;;;25.46;nan;100417.53;5065684;28;20126;-72
2022/05/22 10:42:55;;;;;;;8.93;3.10;;;;;;;25.20;nan;100416.97;5072460;28;20073;-72
2022/05/22 10:45:33;;;;;;;8.13;3.08;;;;;;;25.37;nan;100411.19;5073634;28;20120;-72
2022/05/22 10:48:17;;;;;;;8.88;2.75;;;;;;;25.53;nan;100404.69;5062674;28;20049;-71
2022/05/22 10:51:07;;;;;;;8.18;3.97;;;;;;;25.62;nan;100398.66;5068820;28;20041;-71
2022/05/22 10:53:50;;;;;;;13.05;3.80;;;;;;;25.62;nan;100395.19;5055763;28;20066;-71
2022/05/22 10:56:24;;;;;;;8.95;3.40;;;;;;;25.73;nan;100392.53;5070488;28;20503;-71
2022/05/22 10:58:58;;;;;;;8.05;3.20;;;;;;;25.86;nan;100387.06;5063467;28;20092;-70
2022/05/22 11:01:27;;;;;;;11.32;3.72;;;;;;;25.86;nan;100382.59;5060002;28;20041;-71
2022/05/22 11:04:08;;;;;;;9.35;3.72;;;;;;;25.87;nan;100379.00;5053062;28;20168;-69
2022/05/22 11:06:57;;;;;;;9.25;3.83;;;;;;;25.83;nan;100374.97;5054229;28;20040;-71
2022/05/22 11:09:34;;;;;;;7.47;3.70;;;;;;;25.77;nan;100372.00;5064344;28;20045;-70
2022/05/22 11:12:10;;;;;;;6.50;3.40;;;;;;;25.79;nan;100364.81;5060494;28;20045;-70
2022/05/22 11:14:39;;;;;;;10.23;3.30;;;;;;;25.60;nan;100365.47;5068010;28;20502;-70
2022/05/22 11:17:23;;;;;;;6.40;3.53;;;;;;;25.60;nan;100363.66;5057551;28;20052;-70
2022/05/22 11:19:56;;;;;;;9.15;3.30;;;;;;;25.62;nan;100367.03;5057119;28;20375;-71
2022/05/22 11:23:10;;;;;;;6.80;3.38;;;;;;;25.72;nan;100354.75;5071354;28;20045;-70
2022/05/22 11:26:08;;;;;;;8.50;3.27;;;;;;;25.79;nan;100343.69;5063300;28;20071;-70
2022/05/22 11:29:02;;;;;;;7.13;3.40;;;;;;;25.70;nan;100338.22;5066079;28;20149;-70
2022/05/22 11:32:14;;;;;;;12.18;3.78;;;;;;;25.67;nan;100333.22;5058224;28;20049;-70
2022/05/22 11:35:12;;;;;;;9.88;3.42;;;;;;;25.20;nan;100332.66;5019456;28;20117;-69
2022/05/22 11:38:14;;;;;;;11.82;4.00;;;;;;;24.72;nan;100347.88;5062269;28;20113;-69
2022/05/22 11:41:34;;;;;;;8.00;3.80;;;;;;;24.05;nan;100336.38;5067057;28;20528;-70
2022/05/22 11:45:02;;;;;;;6.68;3.33;;;;;;;23.60;nan;100338.88;5059673;28;20099;-70
2022/05/22 11:48:06;;;;;;;9.68;3.72;;;;;;;24.02;nan;100324.28;5066152;28;20112;-70
2022/05/22 11:50:43;;;;;;;8.43;3.50;;;;;;;24.48;nan;100327.75;5065251;28;20049;-70
2022/05/22 11:53:54;;;;;;;7.15;2.75;;;;;;;24.87;nan;100327.38;5055876;28;20053;-71
2022/05/22 11:56:42;;;;;;;8.63;3.40;;;;;;;25.07;nan;100327.56;5057332;28;20077;-71
2022/05/22 12:00:02;;;;;;;7.82;3.22;;;;;;;24.96;nan;100325.81;5061530;28;20124;-69
2022/05/22 12:03:16;;;;;;;8.20;3.60;;;;;;;24.84;nan;100324.97;5057325;28;20099;-69
2022/05/22 12:06:08;;;;;;;7.13;3.65;;;;;;;24.87;nan;100310.75;5055584;28;20041;-70
2022/05/22 12:08:56;;;;;;;7.20;4.03;;;;;;;25.14;nan;100309.47;5062112;28;20046;-70
2022/05/22 12:11:39;;;;;;;7.97;3.55;;;;;;;25.63;nan;100302.78;5057653;28;20117;-70
2022/05/22 12:14:22;;;;;;;7.03;3.53;;;;;;;26.08;nan;100296.34;5054241;28;20470;-71
2022/05/22 12:17:08;;;;;;;8.35;3.30;;;;;;;26.09;nan;100292.78;5066297;28;20037;-71
2022/05/22 12:20:10;;;;;;;7.28;3.33;;;;;;;25.27;nan;100287.25;5050428;28;20045;-71
2022/05/22 12:23:10;;;;;;;7.25;3.35;;;;;;;25.14;nan;100291.84;5059216;28;20061;-70
2022/05/22 12:26:14;;;;;;;8.18;3.33;;;;;;;24.64;nan;100289.69;5058723;28;20095;-70
2022/05/22 12:28:56;;;;;;;8.05;3.95;;;;;;;24.40;nan;100295.13;5066115;28;20041;-70
2022/05/22 12:31:35;;;;;;;9.18;4.20;;;;;;;24.07;nan;100294.16;5051207;28;20399;-69
2022/05/22 12:34:09;;;;;;;9.45;3.65;;;;;;;23.92;nan;100283.00;5050475;28;20048;-72
2022/05/22 12:36:40;;;;;;;;;;;;;;;24.33;nan;100277.16;5043540;28;20038;-72
2022/05/22 12:39:12;;;;;;;10.90;3.38;;;;;;;24.12;nan;100278.84;5037256;28;20035;-70
2022/05/22 12:42:12;;;;;;;8.63;3.60;;;;;;;24.57;nan;100275.38;5056597;28;20041;-70
2022/05/22 12:44:39;;;;;;;8.07;3.45;;;;;;;25.11;nan;100268.41;5039872;28;20100;-71
2022/05/22 12:47:16;;;;;;;8.05;3.50;;;;;;;25.59;nan;100261.81;5044042;28;20049;-70
2022/05/22 12:49:58;;;;;;;8.77;3.88;;;;;;;25.86;nan;100248.06;5044119;28;20037;-72
2022/05/22 12:52:30;;;;;;;9.18;3.60;;;;;;;26.13;nan;100240.56;5032898;28;21110;-71
2022/05/22 12:55:00;;;;;;;7.70;3.13;;;;;;;26.28;nan;100239.25;5037611;28;20866;-71
2022/05/22 12:57:27;;;;;;;7.88;2.90;;;;;;;26.45;nan;100234.28;5034104;28;20051;-70
2022/05/22 13:00:11;;;;;;;7.47;3.13;;;;;;;26.60;nan;100230.28;5048254;28;20042;-71
2022/05/22 13:02:43;;;;;;;7.47;2.70;;;;;;;26.66;nan;100223.59;5030231;28;20808;-71